sensor_id;sensor_type;location;lat;lon;timestamp;temperature;humidity
16485;DHT22;8353;47.856;12.344;2023-02-15T00:00:40;5.20;99.90
16485;DHT22;8353;47.856;12.344;2023-02-15T00:03:10;5.40;99.90
16485;DHT22;8353;47.856;12.344;2023-02-15T00:05:44;5.40;99.90
16485;DHT22;8353;47.856;12.344;2023-02-15T00:08:14;5.40;99.90
16485;DHT22;8353;47.856;12.344;2023-02-15T00:10:45;5.30;99.90
16485;DHT22;8353;47.856;12.344;2023-02-15T00:13:15;5.10;99.90
16485;DHT22;8353;47.856;12.344;2023-02-15T00:15:47;5.20;99.90
16485;DHT22;8353;47.856;12.344;2023-02-15T00:18:17;5.30;99.90
16485;DHT22;8353;47.856;12.344;2023-02-15T00:20:48;5.20;99.90
16485;DHT22;8353;47.856;12.344;2023-02-15T00:23:18;4.80;99.90
16485;DHT22;8353;47.856;12.344;2023-02-15T00:25:49;4.40;99.90
16485;DHT22;8353;47.856;12.344;2023-02-15T00:28:20;4.30;99.90
16485;DHT22;8353;47.856;12.344;2023-02-15T00:30:52;4.10;99.90
16485;DHT22;8353;47.856;12.344;2023-02-15T00:33:24;4.00;99.90
16485;DHT22;8353;47.856;12.344;2023-02-15T00:35:56;3.90;99.90
16485;DHT22;8353;47.856;12.344;2023-02-15T00:38:27;3.70;99.90
16485;DHT22;8353;47.856;12.344;2023-02-15T00:41:00;4.00;99.90
16485;DHT22;8353;47.856;12.344;2023-02-15T00:43:31;4.00;99.90
16485;DHT22;8353;47.856;12.344;2023-02-15T00:46:04;3.90;99.90
16485;DHT22;8353;47.856;12.344;2023-02-15T00:48:34;3.80;99.90
16485;DHT22;8353;47.856;12.344;2023-02-15T00:51:05;4.10;99.90
16485;DHT22;8353;47.856;12.344;2023-02-15T00:53:36;4.10;99.90
16485;DHT22;8353;47.856;12.344;2023-02-15T00:56:07;4.20;99.90
16485;DHT22;8353;47.856;12.344;2023-02-15T00:58:38;4.10;99.90
16485;DHT22;8353;47.856;12.344;2023-02-15T01:01:11;4.30;99.90
16485;DHT22;8353;47.856;12.344;2023-02-15T01:03:42;4.40;99.90
16485;DHT22;8353;47.856;12.344;2023-02-15T01:06:13;4.40;99.90
16485;DHT22;8353;47.856;12.344;2023-02-15T01:08:45;4.60;99.90
16485;DHT22;8353;47.856;12.344;2023-02-15T01:11:18;4.60;99.90
16485;DHT22;8353;47.856;12.344;2023-02-15T01:13:52;4.80;99.90
16485;DHT22;8353;47.856;12.344;2023-02-15T01:16:26;4.90;99.90
16485;DHT22;8353;47.856;12.344;2023-02-15T01:18:58;4.80;99.90
16485;DHT22;8353;47.856;12.344;2023-02-15T01:21:28;4.80;99.90
16485;DHT22;8353;47.856;12.344;2023-02-15T01:23:58;5.00;99.90
16485;DHT22;8353;47.856;12.344;2023-02-15T01:26:29;4.90;99.90
16485;DHT22;8353;47.856;12.344;2023-02-15T01:28:59;5.00;99.90
16485;DHT22;8353;47.856;12.344;2023-02-15T01:31:31;5.10;99.90
16485;DHT22;8353;47.856;12.344;2023-02-15T01:34:02;5.00;99.90
16485;DHT22;8353;47.856;12.344;2023-02-15T01:36:33;4.70;99.90
16485;DHT22;8353;47.856;12.344;2023-02-15T01:39:04;4.80;99.90
16485;DHT22;8353;47.856;12.344;2023-02-15T01:41:37;4.80;99.90
16485;DHT22;8353;47.856;12.344;2023-02-15T01:44:46;4.90;99.90
16485;DHT22;8353;47.856;12.344;2023-02-15T01:47:22;4.80;99.90
16485;DHT22;8353;47.856;12.344;2023-02-15T01:50:00;5.00;99.90
16485;DHT22;8353;47.856;12.344;2023-02-15T01:52:32;5.00;99.90
16485;DHT22;8353;47.856;12.344;2023-02-15T01:55:04;5.00;99.90
16485;DHT22;8353;47.856;12.344;2023-02-15T01:57:35;5.10;99.90
16485;DHT22;8353;47.856;12.344;2023-02-15T02:00:08;5.10;99.90
16485;DHT22;8353;47.856;12.344;2023-02-15T02:02:42;5.10;99.90
16485;DHT22;8353;47.856;12.344;2023-02-15T02:05:13;5.10;99.90
16485;DHT22;8353;47.856;12.344;2023-02-15T02:07:45;5.10;99.90
16485;DHT22;8353;47.856;12.344;2023-02-15T02:10:19;4.80;99.90
16485;DHT22;8353;47.856;12.344;2023-02-15T02:12:54;4.40;99.90
16485;DHT22;8353;47.856;12.344;2023-02-15T02:15:34;4.30;99.90
16485;DHT22;8353;47.856;12.344;2023-02-15T02:18:25;4.20;99.90
16485;DHT22;8353;47.856;12.344;2023-02-15T02:24:12;3.80;99.90
16485;DHT22;8353;47.856;12.344;2023-02-15T02:27:29;4.20;99.90
16485;DHT22;8353;47.856;12.344;2023-02-15T02:33:20;4.40;99.90
16485;DHT22;8353;47.856;12.344;2023-02-15T02:36:02;4.20;99.90
16485;DHT22;8353;47.856;12.344;2023-02-15T02:38:41;4.30;99.90
16485;DHT22;8353;47.856;12.344;2023-02-15T02:41:17;4.40;99.90
16485;DHT22;8353;47.856;12.344;2023-02-15T02:43:54;4.50;99.90
16485;DHT22;8353;47.856;12.344;2023-02-15T02:46:30;4.70;99.90
16485;DHT22;8353;47.856;12.344;2023-02-15T02:49:03;4.90;99.90
16485;DHT22;8353;47.856;12.344;2023-02-15T02:51:33;4.90;99.90
16485;DHT22;8353;47.856;12.344;2023-02-15T02:54:05;4.90;99.90
16485;DHT22;8353;47.856;12.344;2023-02-15T02:56:38;4.80;99.90
16485;DHT22;8353;47.856;12.344;2023-02-15T02:59:13;4.90;99.90
16485;DHT22;8353;47.856;12.344;2023-02-15T03:01:49;4.80;99.90
16485;DHT22;8353;47.856;12.344;2023-02-15T03:04:26;4.50;99.90
16485;DHT22;8353;47.856;12.344;2023-02-15T03:07:01;4.50;99.90
16485;DHT22;8353;47.856;12.344;2023-02-15T03:09:35;4.50;99.90
16485;DHT22;8353;47.856;12.344;2023-02-15T03:12:13;4.20;99.90
16485;DHT22;8353;47.856;12.344;2023-02-15T03:14:48;4.10;99.90
16485;DHT22;8353;47.856;12.344;2023-02-15T03:17:21;4.20;99.90
16485;DHT22;8353;47.856;12.344;2023-02-15T03:19:56;4.20;99.90
16485;DHT22;8353;47.856;12.344;2023-02-15T03:22:30;4.30;99.90
16485;DHT22;8353;47.856;12.344;2023-02-15T03:25:09;4.30;99.90
16485;DHT22;8353;47.856;12.344;2023-02-15T03:27:45;4.40;99.90
16485;DHT22;8353;47.856;12.344;2023-02-15T03:30:19;4.50;99.90
16485;DHT22;8353;47.856;12.344;2023-02-15T03:32:51;4.40;99.90
16485;DHT22;8353;47.856;12.344;2023-02-15T03:35:26;4.00;99.90
16485;DHT22;8353;47.856;12.344;2023-02-15T03:38:03;3.80;99.90
16485;DHT22;8353;47.856;12.344;2023-02-15T03:40:38;3.80;99.90
16485;DHT22;8353;47.856;12.344;2023-02-15T03:43:32;4.00;99.90
16485;DHT22;8353;47.856;12.344;2023-02-15T03:46:12;4.00;99.90
16485;DHT22;8353;47.856;12.344;2023-02-15T03:48:49;4.10;99.90
16485;DHT22;8353;47.856;12.344;2023-02-15T03:51:27;4.30;99.90
16485;DHT22;8353;47.856;12.344;2023-02-15T03:54:07;4.30;99.90
16485;DHT22;8353;47.856;12.344;2023-02-15T03:56:40;4.30;99.90
16485;DHT22;8353;47.856;12.344;2023-02-15T03:59:31;4.30;99.90
16485;DHT22;8353;47.856;12.344;2023-02-15T04:02:22;4.30;99.90
16485;DHT22;8353;47.856;12.344;2023-02-15T04:04:54;4.30;99.90
16485;DHT22;8353;47.856;12.344;2023-02-15T04:07:26;4.40;99.90
16485;DHT22;8353;47.856;12.344;2023-02-15T04:09:57;4.30;99.90
16485;DHT22;8353;47.856;12.344;2023-02-15T04:12:44;4.10;99.90
16485;DHT22;8353;47.856;12.344;2023-02-15T04:15:15;4.10;99.90
16485;DHT22;8353;47.856;12.344;2023-02-15T04:18:04;4.10;99.90
16485;DHT22;8353;47.856;12.344;2023-02-15T04:20:35;4.30;99.90
16485;DHT22;8353;47.856;12.344;2023-02-15T04:23:25;4.40;99.90
16485;DHT22;8353;47.856;12.344;2023-02-15T04:26:12;4.50;99.90
16485;DHT22;8353;47.856;12.344;2023-02-15T04:28:43;4.40;99.90
16485;DHT22;8353;47.856;12.344;2023-02-15T04:31:13;4.20;99.90
16485;DHT22;8353;47.856;12.344;2023-02-15T04:33:44;3.70;99.90
16485;DHT22;8353;47.856;12.344;2023-02-15T04:36:14;3.40;99.90
16485;DHT22;8353;47.856;12.344;2023-02-15T04:38:46;3.10;99.90
16485;DHT22;8353;47.856;12.344;2023-02-15T04:41:17;3.30;99.90
16485;DHT22;8353;47.856;12.344;2023-02-15T04:43:47;3.60;99.90
16485;DHT22;8353;47.856;12.344;2023-02-15T04:46:18;3.90;99.90
16485;DHT22;8353;47.856;12.344;2023-02-15T04:48:49;4.00;99.90
16485;DHT22;8353;47.856;12.344;2023-02-15T04:51:20;4.20;99.90
16485;DHT22;8353;47.856;12.344;2023-02-15T04:53:52;4.30;99.90
16485;DHT22;8353;47.856;12.344;2023-02-15T04:56:23;4.40;99.90
16485;DHT22;8353;47.856;12.344;2023-02-15T04:58:54;4.40;99.90
16485;DHT22;8353;47.856;12.344;2023-02-15T05:01:25;4.40;99.90
16485;DHT22;8353;47.856;12.344;2023-02-15T05:03:55;4.50;99.90
16485;DHT22;8353;47.856;12.344;2023-02-15T05:06:25;4.50;99.90
16485;DHT22;8353;47.856;12.344;2023-02-15T05:08:57;4.60;99.90
16485;DHT22;8353;47.856;12.344;2023-02-15T05:11:28;4.60;99.90
16485;DHT22;8353;47.856;12.344;2023-02-15T05:13:58;4.50;99.90
16485;DHT22;8353;47.856;12.344;2023-02-15T05:16:29;4.50;99.90
16485;DHT22;8353;47.856;12.344;2023-02-15T05:18:59;4.60;99.90
16485;DHT22;8353;47.856;12.344;2023-02-15T05:21:31;4.50;99.90
16485;DHT22;8353;47.856;12.344;2023-02-15T05:24:04;4.50;99.90
16485;DHT22;8353;47.856;12.344;2023-02-15T05:26:57;4.70;99.90
16485;DHT22;8353;47.856;12.344;2023-02-15T05:29:45;4.70;99.90
16485;DHT22;8353;47.856;12.344;2023-02-15T05:32:16;4.60;99.90
16485;DHT22;8353;47.856;12.344;2023-02-15T05:34:46;4.60;99.90
16485;DHT22;8353;47.856;12.344;2023-02-15T05:37:17;4.60;99.90
16485;DHT22;8353;47.856;12.344;2023-02-15T05:39:49;4.50;99.90
16485;DHT22;8353;47.856;12.344;2023-02-15T05:42:19;4.50;99.90
16485;DHT22;8353;47.856;12.344;2023-02-15T05:44:50;4.50;99.90
16485;DHT22;8353;47.856;12.344;2023-02-15T05:47:21;4.50;99.90
16485;DHT22;8353;47.856;12.344;2023-02-15T05:49:51;4.50;99.90
16485;DHT22;8353;47.856;12.344;2023-02-15T05:52:22;4.40;99.90
16485;DHT22;8353;47.856;12.344;2023-02-15T05:54:54;4.20;99.90
16485;DHT22;8353;47.856;12.344;2023-02-15T05:57:25;4.30;99.90
16485;DHT22;8353;47.856;12.344;2023-02-15T05:59:56;4.30;99.90
16485;DHT22;8353;47.856;12.344;2023-02-15T06:02:26;4.30;99.90
16485;DHT22;8353;47.856;12.344;2023-02-15T06:04:56;4.30;99.90
16485;DHT22;8353;47.856;12.344;2023-02-15T06:07:26;4.30;99.90
16485;DHT22;8353;47.856;12.344;2023-02-15T06:09:58;4.20;99.90
16485;DHT22;8353;47.856;12.344;2023-02-15T06:12:29;4.00;99.90
16485;DHT22;8353;47.856;12.344;2023-02-15T06:14:59;3.90;99.90
16485;DHT22;8353;47.856;12.344;2023-02-15T06:17:31;3.50;99.90
16485;DHT22;8353;47.856;12.344;2023-02-15T06:20:02;3.40;99.90
16485;DHT22;8353;47.856;12.344;2023-02-15T06:22:33;3.30;99.90
16485;DHT22;8353;47.856;12.344;2023-02-15T06:25:05;3.20;99.90
16485;DHT22;8353;47.856;12.344;2023-02-15T06:27:41;3.20;99.90
16485;DHT22;8353;47.856;12.344;2023-02-15T06:30:13;3.10;99.90
16485;DHT22;8353;47.856;12.344;2023-02-15T06:32:43;3.10;99.90
16485;DHT22;8353;47.856;12.344;2023-02-15T06:35:14;3.20;99.90
16485;DHT22;8353;47.856;12.344;2023-02-15T06:37:45;3.20;99.90
16485;DHT22;8353;47.856;12.344;2023-02-15T06:40:17;3.20;99.90
16485;DHT22;8353;47.856;12.344;2023-02-15T06:42:48;3.40;99.90
16485;DHT22;8353;47.856;12.344;2023-02-15T06:45:18;3.70;99.90
16485;DHT22;8353;47.856;12.344;2023-02-15T06:47:49;3.80;99.90
16485;DHT22;8353;47.856;12.344;2023-02-15T06:50:20;3.90;99.90
16485;DHT22;8353;47.856;12.344;2023-02-15T06:52:56;3.60;99.90
16485;DHT22;8353;47.856;12.344;2023-02-15T06:55:28;3.70;99.90
16485;DHT22;8353;47.856;12.344;2023-02-15T06:57:59;3.60;99.90
16485;DHT22;8353;47.856;12.344;2023-02-15T07:00:29;3.80;99.90
16485;DHT22;8353;47.856;12.344;2023-02-15T07:03:00;4.10;99.90
16485;DHT22;8353;47.856;12.344;2023-02-15T07:05:33;4.10;99.90
16485;DHT22;8353;47.856;12.344;2023-02-15T07:08:04;3.90;99.90
16485;DHT22;8353;47.856;12.344;2023-02-15T07:10:36;3.90;99.90
16485;DHT22;8353;47.856;12.344;2023-02-15T07:13:07;3.80;99.90
16485;DHT22;8353;47.856;12.344;2023-02-15T07:15:37;3.70;99.90
16485;DHT22;8353;47.856;12.344;2023-02-15T07:18:08;3.80;99.90
16485;DHT22;8353;47.856;12.344;2023-02-15T07:20:40;3.70;99.90
16485;DHT22;8353;47.856;12.344;2023-02-15T07:23:11;3.70;99.90
16485;DHT22;8353;47.856;12.344;2023-02-15T07:25:43;3.60;99.90
16485;DHT22;8353;47.856;12.344;2023-02-15T07:28:13;3.60;99.90
16485;DHT22;8353;47.856;12.344;2023-02-15T07:30:45;3.80;99.90
16485;DHT22;8353;47.856;12.344;2023-02-15T07:33:16;3.80;99.90
16485;DHT22;8353;47.856;12.344;2023-02-15T07:35:54;3.60;99.90
16485;DHT22;8353;47.856;12.344;2023-02-15T07:38:26;3.40;99.90
16485;DHT22;8353;47.856;12.344;2023-02-15T07:40:59;3.20;99.90
16485;DHT22;8353;47.856;12.344;2023-02-15T07:43:32;3.30;99.90
16485;DHT22;8353;47.856;12.344;2023-02-15T07:46:04;2.80;99.90
16485;DHT22;8353;47.856;12.344;2023-02-15T07:48:34;2.70;99.90
16485;DHT22;8353;47.856;12.344;2023-02-15T07:51:09;2.70;99.90
16485;DHT22;8353;47.856;12.344;2023-02-15T07:53:40;2.90;99.90
16485;DHT22;8353;47.856;12.344;2023-02-15T07:56:13;2.80;99.90
16485;DHT22;8353;47.856;12.344;2023-02-15T07:58:45;3.00;99.90
16485;DHT22;8353;47.856;12.344;2023-02-15T08:01:22;3.20;99.90
16485;DHT22;8353;47.856;12.344;2023-02-15T08:03:53;3.20;99.90
16485;DHT22;8353;47.856;12.344;2023-02-15T08:06:26;3.20;99.90
16485;DHT22;8353;47.856;12.344;2023-02-15T08:08:57;3.20;99.90
16485;DHT22;8353;47.856;12.344;2023-02-15T08:11:31;3.10;99.90
16485;DHT22;8353;47.856;12.344;2023-02-15T08:14:10;3.10;99.90
16485;DHT22;8353;47.856;12.344;2023-02-15T08:16:42;3.10;99.90
16485;DHT22;8353;47.856;12.344;2023-02-15T08:19:15;3.30;99.90
16485;DHT22;8353;47.856;12.344;2023-02-15T08:21:48;3.60;99.90
16485;DHT22;8353;47.856;12.344;2023-02-15T08:24:20;3.50;99.90
16485;DHT22;8353;47.856;12.344;2023-02-15T08:26:53;3.30;99.90
16485;DHT22;8353;47.856;12.344;2023-02-15T08:29:25;3.20;99.90
16485;DHT22;8353;47.856;12.344;2023-02-15T08:31:57;3.50;99.90
16485;DHT22;8353;47.856;12.344;2023-02-15T08:34:32;3.60;99.90
16485;DHT22;8353;47.856;12.344;2023-02-15T08:37:03;3.80;99.90
16485;DHT22;8353;47.856;12.344;2023-02-15T08:39:35;4.00;99.90
16485;DHT22;8353;47.856;12.344;2023-02-15T08:42:07;4.10;99.90
16485;DHT22;8353;47.856;12.344;2023-02-15T08:44:38;4.20;99.90
16485;DHT22;8353;47.856;12.344;2023-02-15T08:47:11;4.00;99.90
16485;DHT22;8353;47.856;12.344;2023-02-15T08:49:41;4.10;99.90
16485;DHT22;8353;47.856;12.344;2023-02-15T08:52:12;4.20;99.90
16485;DHT22;8353;47.856;12.344;2023-02-15T08:54:43;4.20;99.90
16485;DHT22;8353;47.856;12.344;2023-02-15T08:57:14;4.30;99.90
16485;DHT22;8353;47.856;12.344;2023-02-15T08:59:45;4.40;99.90
16485;DHT22;8353;47.856;12.344;2023-02-15T09:02:16;4.50;99.90
16485;DHT22;8353;47.856;12.344;2023-02-15T09:04:47;4.60;99.90
16485;DHT22;8353;47.856;12.344;2023-02-15T09:07:17;4.40;99.90
16485;DHT22;8353;47.856;12.344;2023-02-15T09:09:48;4.20;99.90
16485;DHT22;8353;47.856;12.344;2023-02-15T09:12:20;4.40;99.90
16485;DHT22;8353;47.856;12.344;2023-02-15T09:14:50;4.60;99.90
16485;DHT22;8353;47.856;12.344;2023-02-15T09:17:21;4.80;99.90
16485;DHT22;8353;47.856;12.344;2023-02-15T09:19:51;4.80;99.90
16485;DHT22;8353;47.856;12.344;2023-02-15T09:22:22;4.80;99.90
16485;DHT22;8353;47.856;12.344;2023-02-15T09:24:53;4.70;99.90
16485;DHT22;8353;47.856;12.344;2023-02-15T09:27:25;4.70;99.90
16485;DHT22;8353;47.856;12.344;2023-02-15T09:29:55;4.60;99.90
16485;DHT22;8353;47.856;12.344;2023-02-15T09:32:25;4.40;99.90
16485;DHT22;8353;47.856;12.344;2023-02-15T09:34:56;4.50;99.90
16485;DHT22;8353;47.856;12.344;2023-02-15T09:37:27;4.40;99.90
16485;DHT22;8353;47.856;12.344;2023-02-15T09:39:57;4.40;99.90
16485;DHT22;8353;47.856;12.344;2023-02-15T09:42:48;4.70;99.90
16485;DHT22;8353;47.856;12.344;2023-02-15T09:45:42;4.80;99.90
16485;DHT22;8353;47.856;12.344;2023-02-15T09:48:38;4.90;99.90
16485;DHT22;8353;47.856;12.344;2023-02-15T09:54:19;5.30;99.90
16485;DHT22;8353;47.856;12.344;2023-02-15T09:56:55;5.50;99.90
16485;DHT22;8353;47.856;12.344;2023-02-15T09:59:36;5.70;99.90
16485;DHT22;8353;47.856;12.344;2023-02-15T10:02:24;5.70;99.90
16485;DHT22;8353;47.856;12.344;2023-02-15T10:05:10;5.80;99.90
16485;DHT22;8353;47.856;12.344;2023-02-15T10:08:13;5.90;99.90
16485;DHT22;8353;47.856;12.344;2023-02-15T10:10:57;6.00;99.90
16485;DHT22;8353;47.856;12.344;2023-02-15T10:14:01;5.90;99.90
16485;DHT22;8353;47.856;12.344;2023-02-15T10:16:42;6.10;99.90
16485;DHT22;8353;47.856;12.344;2023-02-15T10:19:20;6.10;99.90
16485;DHT22;8353;47.856;12.344;2023-02-15T10:22:01;5.90;99.90
16485;DHT22;8353;47.856;12.344;2023-02-15T10:24:43;5.70;99.90
16485;DHT22;8353;47.856;12.344;2023-02-15T10:27:20;5.70;99.90
16485;DHT22;8353;47.856;12.344;2023-02-15T10:30:00;5.70;99.90
16485;DHT22;8353;47.856;12.344;2023-02-15T10:32:39;5.80;99.90
16485;DHT22;8353;47.856;12.344;2023-02-15T10:35:15;5.40;99.90
16485;DHT22;8353;47.856;12.344;2023-02-15T10:38:00;5.70;99.90
16485;DHT22;8353;47.856;12.344;2023-02-15T10:40:39;5.60;99.90
16485;DHT22;8353;47.856;12.344;2023-02-15T10:43:24;5.50;99.90
16485;DHT22;8353;47.856;12.344;2023-02-15T10:46:06;5.60;99.90
16485;DHT22;8353;47.856;12.344;2023-02-15T10:48:52;5.90;99.90
16485;DHT22;8353;47.856;12.344;2023-02-15T10:51:35;6.20;99.90
16485;DHT22;8353;47.856;12.344;2023-02-15T10:54:15;6.50;99.90
16485;DHT22;8353;47.856;12.344;2023-02-15T10:56:58;6.70;99.90
16485;DHT22;8353;47.856;12.344;2023-02-15T10:59:41;6.60;99.90
16485;DHT22;8353;47.856;12.344;2023-02-15T11:02:23;6.60;99.90
16485;DHT22;8353;47.856;12.344;2023-02-15T11:05:07;6.00;99.90
16485;DHT22;8353;47.856;12.344;2023-02-15T11:07:47;6.10;99.90
16485;DHT22;8353;47.856;12.344;2023-02-15T11:10:27;6.50;99.90
16485;DHT22;8353;47.856;12.344;2023-02-15T11:13:04;6.60;99.90
16485;DHT22;8353;47.856;12.344;2023-02-15T11:15:38;6.30;99.90
16485;DHT22;8353;47.856;12.344;2023-02-15T11:18:13;5.70;99.90
16485;DHT22;8353;47.856;12.344;2023-02-15T11:20:52;6.20;99.90
16485;DHT22;8353;47.856;12.344;2023-02-15T11:23:26;6.60;99.90
16485;DHT22;8353;47.856;12.344;2023-02-15T11:25:59;6.90;99.90
16485;DHT22;8353;47.856;12.344;2023-02-15T11:28:33;7.20;99.90
16485;DHT22;8353;47.856;12.344;2023-02-15T11:31:13;7.40;99.90
16485;DHT22;8353;47.856;12.344;2023-02-15T11:33:49;7.50;99.90
16485;DHT22;8353;47.856;12.344;2023-02-15T11:36:25;7.10;99.90
16485;DHT22;8353;47.856;12.344;2023-02-15T11:38:59;7.30;99.90
16485;DHT22;8353;47.856;12.344;2023-02-15T11:41:36;7.60;99.90
16485;DHT22;8353;47.856;12.344;2023-02-15T11:44:13;7.70;99.90
16485;DHT22;8353;47.856;12.344;2023-02-15T11:46:46;7.40;99.90
16485;DHT22;8353;47.856;12.344;2023-02-15T11:49:23;7.70;99.90
16485;DHT22;8353;47.856;12.344;2023-02-15T11:51:57;8.00;99.90
16485;DHT22;8353;47.856;12.344;2023-02-15T11:54:30;8.10;99.90
16485;DHT22;8353;47.856;12.344;2023-02-15T11:57:11;7.90;99.90
16485;DHT22;8353;47.856;12.344;2023-02-15T11:59:46;7.70;99.90
16485;DHT22;8353;47.856;12.344;2023-02-15T12:02:21;7.90;99.90
16485;DHT22;8353;47.856;12.344;2023-02-15T12:04:53;7.90;99.90
16485;DHT22;8353;47.856;12.344;2023-02-15T12:07:29;7.90;99.90
16485;DHT22;8353;47.856;12.344;2023-02-15T12:10:05;8.10;99.90
16485;DHT22;8353;47.856;12.344;2023-02-15T12:12:45;8.10;99.90
16485;DHT22;8353;47.856;12.344;2023-02-15T12:15:30;8.10;99.90
16485;DHT22;8353;47.856;12.344;2023-02-15T12:18:01;8.50;99.90
16485;DHT22;8353;47.856;12.344;2023-02-15T12:20:33;8.60;99.90
16485;DHT22;8353;47.856;12.344;2023-02-15T12:23:12;8.80;99.90
16485;DHT22;8353;47.856;12.344;2023-02-15T12:25:49;9.00;99.90
16485;DHT22;8353;47.856;12.344;2023-02-15T12:28:25;8.90;99.90
16485;DHT22;8353;47.856;12.344;2023-02-15T12:30:56;8.80;99.90
16485;DHT22;8353;47.856;12.344;2023-02-15T12:33:29;8.90;99.90
16485;DHT22;8353;47.856;12.344;2023-02-15T12:36:10;8.90;99.90
16485;DHT22;8353;47.856;12.344;2023-02-15T12:38:43;9.00;99.90
16485;DHT22;8353;47.856;12.344;2023-02-15T12:41:23;9.30;99.90
16485;DHT22;8353;47.856;12.344;2023-02-15T12:44:05;9.50;99.90
16485;DHT22;8353;47.856;12.344;2023-02-15T12:46:36;9.50;99.90
16485;DHT22;8353;47.856;12.344;2023-02-15T12:49:14;9.40;99.90
16485;DHT22;8353;47.856;12.344;2023-02-15T12:51:48;9.40;99.90
16485;DHT22;8353;47.856;12.344;2023-02-15T12:54:35;9.40;99.90
16485;DHT22;8353;47.856;12.344;2023-02-15T12:57:26;9.40;99.90
16485;DHT22;8353;47.856;12.344;2023-02-15T12:59:58;9.30;99.90
16485;DHT22;8353;47.856;12.344;2023-02-15T13:02:36;9.60;99.90
16485;DHT22;8353;47.856;12.344;2023-02-15T13:05:19;9.80;99.90
16485;DHT22;8353;47.856;12.344;2023-02-15T13:07:56;9.90;99.90
16485;DHT22;8353;47.856;12.344;2023-02-15T13:10:31;9.90;99.90
16485;DHT22;8353;47.856;12.344;2023-02-15T13:13:09;10.20;99.90
16485;DHT22;8353;47.856;12.344;2023-02-15T13:15:42;10.40;99.90
16485;DHT22;8353;47.856;12.344;2023-02-15T13:18:17;10.50;99.90
16485;DHT22;8353;47.856;12.344;2023-02-15T13:20:49;10.30;99.90
16485;DHT22;8353;47.856;12.344;2023-02-15T13:23:26;10.10;99.90
16485;DHT22;8353;47.856;12.344;2023-02-15T13:26:04;10.20;99.90
16485;DHT22;8353;47.856;12.344;2023-02-15T13:28:42;10.50;99.90
16485;DHT22;8353;47.856;12.344;2023-02-15T13:31:17;10.80;99.90
16485;DHT22;8353;47.856;12.344;2023-02-15T13:33:50;10.90;99.90
16485;DHT22;8353;47.856;12.344;2023-02-15T13:36:27;11.10;99.90
16485;DHT22;8353;47.856;12.344;2023-02-15T13:39:07;11.10;99.90
16485;DHT22;8353;47.856;12.344;2023-02-15T13:41:49;11.20;99.90
16485;DHT22;8353;47.856;12.344;2023-02-15T13:44:29;11.40;99.90
16485;DHT22;8353;47.856;12.344;2023-02-15T13:47:17;11.40;99.90
16485;DHT22;8353;47.856;12.344;2023-02-15T13:50:01;11.40;99.90
16485;DHT22;8353;47.856;12.344;2023-02-15T13:52:38;11.60;99.90
16485;DHT22;8353;47.856;12.344;2023-02-15T13:55:35;11.80;99.90
16485;DHT22;8353;47.856;12.344;2023-02-15T13:58:23;11.80;99.90
16485;DHT22;8353;47.856;12.344;2023-02-15T14:01:04;11.50;99.90
16485;DHT22;8353;47.856;12.344;2023-02-15T14:03:51;11.50;99.90
16485;DHT22;8353;47.856;12.344;2023-02-15T14:06:51;11.60;99.90
16485;DHT22;8353;47.856;12.344;2023-02-15T14:09:36;11.80;99.90
16485;DHT22;8353;47.856;12.344;2023-02-15T14:12:26;12.10;99.90
16485;DHT22;8353;47.856;12.344;2023-02-15T14:15:21;12.20;99.90
16485;DHT22;8353;47.856;12.344;2023-02-15T14:18:14;12.30;99.90
16485;DHT22;8353;47.856;12.344;2023-02-15T14:20:56;12.30;99.90
16485;DHT22;8353;47.856;12.344;2023-02-15T14:23:39;12.30;99.90
16485;DHT22;8353;47.856;12.344;2023-02-15T14:26:24;12.20;99.90
16485;DHT22;8353;47.856;12.344;2023-02-15T14:29:07;12.10;99.90
16485;DHT22;8353;47.856;12.344;2023-02-15T14:31:47;12.00;99.90
16485;DHT22;8353;47.856;12.344;2023-02-15T14:34:22;11.90;99.90
16485;DHT22;8353;47.856;12.344;2023-02-15T14:36:55;11.80;99.90
16485;DHT22;8353;47.856;12.344;2023-02-15T14:39:34;11.80;99.90
16485;DHT22;8353;47.856;12.344;2023-02-15T14:42:29;11.80;99.90
16485;DHT22;8353;47.856;12.344;2023-02-15T14:45:12;12.10;99.90
16485;DHT22;8353;47.856;12.344;2023-02-15T14:47:55;12.10;99.90
16485;DHT22;8353;47.856;12.344;2023-02-15T14:50:38;12.20;99.90
16485;DHT22;8353;47.856;12.344;2023-02-15T14:53:35;12.40;99.90
16485;DHT22;8353;47.856;12.344;2023-02-15T14:56:25;12.60;99.90
16485;DHT22;8353;47.856;12.344;2023-02-15T15:01:56;12.30;99.90
16485;DHT22;8353;47.856;12.344;2023-02-15T15:04:34;11.90;99.90
16485;DHT22;8353;47.856;12.344;2023-02-15T15:07:13;12.10;99.90
16485;DHT22;8353;47.856;12.344;2023-02-15T15:09:57;12.10;99.90
16485;DHT22;8353;47.856;12.344;2023-02-15T15:12:39;12.30;99.90
16485;DHT22;8353;47.856;12.344;2023-02-15T15:15:33;12.50;99.90
16485;DHT22;8353;47.856;12.344;2023-02-15T15:18:04;12.60;99.90
16485;DHT22;8353;47.856;12.344;2023-02-15T15:20:46;12.70;99.90
16485;DHT22;8353;47.856;12.344;2023-02-15T15:23:50;12.80;99.90
16485;DHT22;8353;47.856;12.344;2023-02-15T15:26:32;12.70;99.90
16485;DHT22;8353;47.856;12.344;2023-02-15T15:29:06;12.70;99.90
16485;DHT22;8353;47.856;12.344;2023-02-15T15:31:41;12.70;99.90
16485;DHT22;8353;47.856;12.344;2023-02-15T15:34:21;12.70;99.90
16485;DHT22;8353;47.856;12.344;2023-02-15T15:37:30;12.60;99.90
16485;DHT22;8353;47.856;12.344;2023-02-15T15:40:30;12.50;99.90
16485;DHT22;8353;47.856;12.344;2023-02-15T15:49:24;12.50;99.90
16485;DHT22;8353;47.856;12.344;2023-02-15T15:52:01;12.50;99.90
16485;DHT22;8353;47.856;12.344;2023-02-15T15:54:33;12.40;99.90
16485;DHT22;8353;47.856;12.344;2023-02-15T15:57:04;12.20;99.90
16485;DHT22;8353;47.856;12.344;2023-02-15T15:59:44;12.00;99.90
16485;DHT22;8353;47.856;12.344;2023-02-15T16:02:17;11.90;99.90
16485;DHT22;8353;47.856;12.344;2023-02-15T16:04:47;11.90;99.90
16485;DHT22;8353;47.856;12.344;2023-02-15T16:07:24;11.80;99.90
16485;DHT22;8353;47.856;12.344;2023-02-15T16:09:58;11.70;99.90
16485;DHT22;8353;47.856;12.344;2023-02-15T16:12:31;11.60;99.90
16485;DHT22;8353;47.856;12.344;2023-02-15T16:15:13;11.50;99.90
16485;DHT22;8353;47.856;12.344;2023-02-15T16:17:46;11.50;99.90
16485;DHT22;8353;47.856;12.344;2023-02-15T16:20:20;11.30;99.90
16485;DHT22;8353;47.856;12.344;2023-02-15T16:23:01;11.20;99.90
16485;DHT22;8353;47.856;12.344;2023-02-15T16:25:41;11.10;99.90
16485;DHT22;8353;47.856;12.344;2023-02-15T16:28:16;11.00;99.90
16485;DHT22;8353;47.856;12.344;2023-02-15T16:30:58;10.90;99.90
16485;DHT22;8353;47.856;12.344;2023-02-15T16:33:35;10.70;99.90
16485;DHT22;8353;47.856;12.344;2023-02-15T16:36:11;10.70;99.90
16485;DHT22;8353;47.856;12.344;2023-02-15T16:39:07;10.60;99.90
16485;DHT22;8353;47.856;12.344;2023-02-15T16:41:39;10.50;99.90
16485;DHT22;8353;47.856;12.344;2023-02-15T16:44:16;10.30;99.90
16485;DHT22;8353;47.856;12.344;2023-02-15T16:46:50;10.20;99.90
16485;DHT22;8353;47.856;12.344;2023-02-15T16:49:25;10.20;99.90
16485;DHT22;8353;47.856;12.344;2023-02-15T16:51:58;10.10;99.90
16485;DHT22;8353;47.856;12.344;2023-02-15T16:54:30;9.90;99.90
16485;DHT22;8353;47.856;12.344;2023-02-15T16:57:03;9.90;99.90